Cottonwd Hgts, Utah
Current Conditions -  °F | °C
As of 4:53 PM on Friday 24 Oct 2014 (Local Time) from KSLC Reporting Station
Clear Clear  
Wind Chill: 73°   Ceiling: Unl
Heat Index: 73°   Visibility: 10mi
Dew Point: 39°   Wind: 9mph
Humidity: 29%   Direction: 280°W
Pressure: 30.09"   Gusts: NA
Location:  40.615°N, 111.891°W
Report Text: KSLC 242253Z 28008KT 10SM CLR 23/04 A3009 RMK AO2 SLP158 T02280039
Loading
Personal Weather Stations






























Interactive Weather Map New forecast layout! Learn more

10-Day Weather Forecast

Advertisements
Track Severe Weather on mobile